Time;durP1;ratioP1;P1;durP2;ratioP2;P2;SDS_P1;SDS_P2;PMS_P1;PMS_P2;Temp;Humidity;BMP_temperature;BMP_pressure;BME280_temperature;BME280_humidity;BME280_pressure;Samples;Min_cycle;Max_cycle;Signal;HPM_P1;HPM_P2
2024/04/11 00:13:57;;;;;;;;;;;;;;;;;;;;;
2024/04/11 00:26:56;;;;;;;;;;;;;;;11.25;100.00;101388.19;5875996;23;19999;-77
2024/04/11 01:25:12;;;;;;;0.00;0.00;;;;;;;11.53;100.00;101366.22;6416838;22;20014;-81
2024/04/11 01:27:43;;;;;;;0.00;0.00;;;;;;;11.50;100.00;101352.19;6340305;22;20074;-78
2024/04/11 01:30:44;;;;;;;0.00;0.00;;;;;;;11.55;100.00;101349.53;6376316;22;20013;-80
2024/04/11 01:51:42;;;;;;;0.00;0.00;;;;;;;11.70;100.00;101363.47;6176204;23;20014;-80
2024/04/11 01:54:00;;;;;;;0.00;0.00;;;;;;;11.60;100.00;101368.78;6126721;22;20071;-80
2024/04/11 01:56:46;;;;;;;0.00;0.00;;;;;;;11.80;100.00;101394.84;6272217;22;20013;-82
2024/04/11 02:09:15;;;;;;;0.00;0.00;;;;;;;11.70;100.00;101336.06;6111529;23;20011;-80
2024/04/11 02:11:57;;;;;;;;;;;;;;;;;;;;;
2024/04/11 02:14:43;;;;;;;0.00;0.00;;;;;;;11.81;100.00;101352.66;6323242;22;20037;-78
2024/04/11 02:17:27;;;;;;;;;;;;;;;;;;;;;
2024/04/11 02:20:10;;;;;;;;;;;;;;;11.93;100.00;101378.09;6423500;22;20002;-79
2024/04/11 02:22:48;;;;;;;0.00;0.00;;;;;;;11.85;100.00;101360.09;6374028;22;19934;-79
2024/04/11 02:25:18;;;;;;;0.00;0.00;;;;;;;11.58;100.00;101321.66;6421597;22;20022;-79
2024/04/11 02:28:13;;;;;;;0.00;0.00;;;;;;;11.79;100.00;101365.78;6379753;22;20077;-80
2024/04/11 03:06:09;;;;;;;;;;;;;;;;;;;;;
2024/04/11 03:16:55;;;;;;;;;;;;;;;;;;;;;
2024/04/11 03:36:48;;;;;;;;;;;;;;;;;;;;;
2024/04/11 03:39:17;;;;;;;0.00;0.00;;;;;;;11.90;100.00;101422.41;6256070;22;20006;-77
2024/04/11 04:02:51;;;;;;;0.10;0.10;;;;;;;11.61;100.00;101403.31;6417998;22;19963;-79
2024/04/11 04:09:56;;;;;;;0.00;0.00;;;;;;;11.99;100.00;101453.81;6176136;23;20029;-78
2024/04/11 04:23:36;;;;;;;0.00;0.00;;;;;;;11.64;100.00;101430.22;5956978;23;20001;-82
2024/04/11 04:26:41;;;;;;;0.00;0.00;;;;;;;11.52;100.00;101422.09;5984571;23;20442;-80
2024/04/11 04:29:06;;;;;;;0.00;0.00;;;;;;;11.55;100.00;101437.19;6104995;23;20013;-79
2024/04/11 04:31:37;;;;;;;0.00;0.00;;;;;;;11.56;100.00;101433.34;6142938;22;20005;-80
2024/04/11 04:34:04;;;;;;;0.00;0.00;;;;;;;11.65;100.00;101447.47;6277871;22;20011;-81
2024/04/11 04:36:50;;;;;;;;;;;;;;;;;;;;;
2024/04/11 04:39:16;;;;;;;0.10;0.10;;;;;;;11.59;100.00;101432.84;6370112;22;20383;-80
2024/04/11 04:41:43;;;;;;;0.00;0.00;;;;;;;11.62;100.00;101437.88;6329544;22;20003;-80
2024/04/11 04:44:22;;;;;;;;;;;;;;;;;;;;;
2024/04/11 04:46:51;;;;;;;0.00;0.00;;;;;;;11.57;100.00;101440.50;6371412;22;20726;-80
2024/04/11 04:49:20;;;;;;;0.00;0.00;;;;;;;11.53;100.00;101433.84;6328765;22;20011;-80
2024/04/11 04:52:01;;;;;;;0.00;0.00;;;;;;;11.85;100.00;101474.41;6328477;22;20003;-80
2024/04/11 05:16:35;;;;;;;;;;;;;;;;;;;;;
2024/04/11 05:19:15;;;;;;;0.00;0.00;;;;;;;11.46;100.00;101455.09;5746010;24;20338;-80
2024/04/11 05:22:00;;;;;;;;;;;;;;;;;;;;;
2024/04/11 05:24:35;;;;;;;;;;;;;;;11.67;100.00;101500.94;6146717;23;20005;-79
2024/04/11 05:48:53;;;;;;;0.00;0.00;;;;;;;12.23;100.00;101541.38;5996078;23;19993;-80
2024/04/11 05:51:44;;;;;;;0.00;0.00;;;;;;;12.17;100.00;101525.94;6010094;23;20010;-79
2024/04/11 05:54:51;;;;;;;0.00;0.00;;;;;;;12.18;100.00;101527.59;6121531;23;20000;-80
2024/04/11 05:57:54;;;;;;;0.00;0.00;;;;;;;11.96;100.00;101498.19;6084401;22;20010;-80
2024/04/11 06:00:39;;;;;;;0.00;0.00;;;;;;;12.24;100.00;101548.53;6146257;22;20077;-80
2024/04/11 06:03:46;;;;;;;0.00;0.00;;;;;;;12.15;100.00;101539.03;6289178;22;20032;-79
2024/04/11 06:10:21;;;;;;;;;;;;;;;;;;;;;
2024/04/11 06:20:34;;;;;;;;;;;;;;;;;;;;;
2024/04/11 06:33:48;;;;;;;0.00;0.00;;;;;;;13.03;100.00;101566.69;5715516;24;20087;-80
2024/04/11 06:36:52;;;;;;;0.00;0.00;;;;;;;13.23;100.00;101601.00;5821671;24;20039;-81
2024/04/11 06:39:34;;;;;;;;;;;;;;;;;;;;;
2024/04/11 06:46:25;;;;;;;0.00;0.00;;;;;;;13.63;100.00;101612.78;5898385;23;20353;-80
2024/04/11 06:48:57;;;;;;;0.00;0.00;;;;;;;13.71;100.00;101588.41;6123728;22;20019;-77
2024/04/11 06:51:22;;;;;;;0.00;0.00;;;;;;;14.00;100.00;101604.63;6252190;22;20010;-78
2024/04/11 06:53:53;;;;;;;0.00;0.00;;;;;;;14.17;100.00;101598.19;6328889;22;19995;-76
2024/04/11 06:56:22;;;;;;;0.00;0.00;;;;;;;14.32;100.00;101579.03;6325750;22;19999;-75
2024/04/11 06:58:52;;;;;;;0.00;0.00;;;;;;;14.59;100.00;101594.66;6328896;22;20010;-76
2024/04/11 07:01:21;;;;;;;0.00;0.00;;;;;;;14.78;100.00;101595.91;6329428;22;20318;-78
2024/04/11 07:04:00;;;;;;;0.00;0.00;;;;;;;14.82;100.00;101580.53;6327309;22;20003;-76
2024/04/11 07:07:18;;;;;;;;;;;;;;;;;;;;;
2024/04/11 07:09:45;;;;;;;0.00;0.00;;;;;;;14.72;100.00;101563.94;6360816;22;20013;-78
2024/04/11 07:12:18;;;;;;;0.00;0.00;;;;;;;14.80;100.00;101596.47;6325775;22;20425;-77
2024/04/11 07:14:56;;;;;;;0.00;0.00;;;;;;;14.73;100.00;101597.81;6371861;22;20003;-78
2024/04/11 07:17:56;;;;;;;0.00;0.00;;;;;;;14.81;100.00;101627.59;6284955;22;20011;-78
2024/04/11 07:20:35;;;;;;;0.00;0.00;;;;;;;14.62;100.00;101613.44;6312911;22;20010;-79
2024/04/11 07:23:26;;;;;;;0.00;0.00;;;;;;;14.49;100.00;101636.69;6329288;22;20014;-79
2024/04/11 07:26:22;;;;;;;0.00;0.00;;;;;;;14.28;100.00;101619.16;6303304;22;20070;-79
2024/04/11 07:28:55;;;;;;;;;;;;;;;;;;;;;
2024/04/11 07:31:39;;;;;;;;;;;;;;;;;;;;;
2024/04/11 07:34:11;;;;;;;0.00;0.00;;;;;;;14.10;100.00;101612.97;6371085;22;19999;-77
2024/04/11 07:36:54;;;;;;;0.00;0.00;;;;;;;14.39;100.00;101653.94;6326542;22;20003;-78
2024/04/11 07:39:37;;;;;;;;;;;;;;;;;;;;;
2024/04/11 07:42:47;;;;;;;0.00;0.00;;;;;;;14.52;100.00;101646.38;6364012;22;19999;-79
2024/04/11 07:46:02;;;;;;;;;;;;;;;;;;;;;
2024/04/11 07:48:23;;;;;;;0.00;0.00;;;;;;;14.18;100.00;101652.94;6353459;22;20006;-79
2024/04/11 07:51:51;;;;;;;;;;;;;;;;;;;;;
2024/04/11 07:54:55;;;;;;;;;;;;;;;;;;;;;
2024/04/11 07:58:58;;;;;;;0.00;0.00;;;;;;;14.38;100.00;101701.81;6370401;22;20007;-78
2024/04/11 08:05:51;;;;;;;0.00;0.00;;;;;;;14.26;100.00;101668.13;6144800;23;20663;-79
2024/04/11 09:00:38;;;;;;;0.10;0.10;;;;;;;17.33;93.07;101701.81;6045339;23;20011;-78
2024/04/11 09:03:25;;;;;;;;;;;;;;;;;;;;;
2024/04/11 09:06:26;;;;;;;;;;;;;;;;;;;;;
2024/04/11 09:09:16;;;;;;;0.00;0.00;;;;;;;17.49;93.96;101667.47;6136450;23;20015;-79
2024/04/11 09:11:44;;;;;;;0.00;0.00;;;;;;;17.40;92.39;101694.06;6096159;23;19999;-79
2024/04/11 09:14:18;;;;;;;0.00;0.00;;;;;;;17.20;91.99;101668.16;6290354;22;20483;-80
2024/04/11 09:16:46;;;;;;;0.00;0.00;;;;;;;17.40;92.93;101702.34;6285620;22;20000;-79
2024/04/11 09:19:22;;;;;;;;;;;;;;;;;;;;;
2024/04/11 09:22:37;;;;;;;;;;;;;;;;;;;;;
2024/04/11 09:25:11;;;;;;;;;;;;;;;;;;;;;
2024/04/11 09:31:33;;;;;;;;;;;;;;;;;;;;;
2024/04/11 09:34:31;;;;;;;;;;;;;;;;;;;;;
2024/04/11 09:37:40;;;;;;;0.00;0.00;;;;;;;18.35;87.71;101777.25;6048486;23;20008;-78
2024/04/11 10:05:48;;;;;;;;;;;;;;;;;;;;;
2024/04/11 10:12:00;;;;;;;0.00;0.00;;;;;;;21.52;70.77;101787.59;6167141;22;19998;-79
2024/04/11 10:15:09;;;;;;;0.00;0.00;;;;;;;21.38;69.72;101790.34;6306368;22;20758;-79
2024/04/11 10:18:07;;;;;;;;;;;;;;;;;;;;;
2024/04/11 10:22:01;;;;;;;0.00;0.00;;;;;;;22.01;69.76;101768.53;6390837;22;20304;-80
2024/04/11 10:25:50;;;;;;;0.00;0.00;;;;;;;22.78;68.40;101766.81;6495784;22;20004;-80
2024/04/11 10:35:59;;;;;;;;;;;;;;;;;;;;;
2024/04/11 10:39:09;;;;;;;;;;;;;;;;;;;;;
2024/04/11 10:42:02;;;;;;;;;;;;;;;;;;;;;
2024/04/11 10:45:49;;;;;;;0.00;0.00;;;;;;;21.59;62.98;101776.06;5952449;23;20011;-79
2024/04/11 10:47:57;;;;;;;0.00;0.00;;;;;;;21.12;64.66;101758.56;6460288;22;20037;-79
2024/04/11 10:50:42;;;;;;;0.00;0.00;;;;;;;21.52;64.92;101786.78;6483323;22;20016;-78
2024/04/11 10:53:08;;;;;;;0.00;0.00;;;;;;;21.68;63.63;101754.72;6531733;22;20352;-79
2024/04/11 11:02:19;;;;;;;0.00;0.00;;;;;;;21.18;63.24;101810.19;6314960;22;20006;-79
2024/04/11 11:05:08;;;;;;;0.00;0.00;;;;;;;20.57;66.01;101810.84;6480546;22;20299;-81
2024/04/11 11:07:35;;;;;;;0.00;0.00;;;;;;;20.34;67.13;101786.69;6478366;22;19994;-78
2024/04/11 11:10:27;;;;;;;0.00;0.00;;;;;;;20.03;68.06;101776.00;6480511;22;20029;-81
2024/04/11 11:19:34;;;;;;;0.00;0.00;;;;;;;22.77;63.60;101815.34;6267761;22;20138;-78
2024/04/11 11:23:16;;;;;;;;;;;;;;;;;;;;;
2024/04/11 11:25:58;;;;;;;0.00;0.00;;;;;;;24.06;58.28;101795.22;6221189;23;20324;-78
2024/04/11 11:28:40;;;;;;;;;;;;;;;;;;;;;
2024/04/11 11:31:15;;;;;;;0.00;0.00;;;;;;;23.46;58.28;101802.19;6186365;23;20089;-78
2024/04/11 11:34:37;;;;;;;;;;;;;;;;;;;;;
2024/04/11 11:37:49;;;;;;;;;;;;;;;;;;;;;
2024/04/11 13:14:11;;;;;;;;;;;;;;;;;;;;;
2024/04/11 13:17:23;;;;;;;;;;;;;;;;;;;;;
2024/04/11 13:20:27;;;;;;;0.00;0.00;;;;;;;22.05;64.59;101757.56;5943820;24;20002;-79
2024/04/11 13:23:19;;;;;;;;;;;;;;;;;;;;;
2024/04/11 13:25:46;;;;;;;0.00;0.00;;;;;;;24.34;57.38;101713.88;5904387;23;20007;-78
2024/04/11 13:31:47;;;;;;;;;;;;;;;;;;;;;
2024/04/11 13:34:29;;;;;;;;;;;;;;;;;;;;;
2024/04/11 13:43:24;;;;;;;0.00;0.00;;;;;;;24.72;50.09;101741.19;6419978;22;19998;-79
2024/04/11 13:46:06;;;;;;;;;;;;;;;;;;;;;
2024/04/11 13:51:44;;;;;;;0.00;0.00;;;;;;;26.97;46.97;101733.84;6366057;22;20078;-79
2024/04/11 13:54:19;;;;;;;;;;;;;;;27.36;46.43;101744.00;6374408;22;20069;-78
2024/04/11 13:57:09;;;;;;;0.00;0.00;;;;;;;26.63;45.33;101716.19;6462152;22;19954;-80
2024/04/11 14:00:09;;;;;;;0.00;0.00;;;;;;;26.05;46.91;101721.59;6417527;22;21090;-79
2024/04/11 14:09:46;;;;;;;;;;;;;;;;;;;;;
2024/04/11 14:13:23;;;;;;;0.00;0.00;;;;;;;29.23;43.47;101729.91;6453450;22;19994;-79
2024/04/11 14:15:37;;;;;;;0.00;0.00;;;;;;;31.46;37.42;101695.09;6393997;22;20006;-79
2024/04/11 14:18:05;;;;;;;0.00;0.00;;;;;;;30.76;35.91;101697.09;6417062;22;20065;-78
2024/04/11 14:24:15;;;;;;;0.00;0.00;;;;;;;27.68;42.08;101702.91;6420088;22;20013;-80
2024/04/11 14:27:16;;;;;;;0.00;0.00;;;;;;;27.18;43.51;101699.25;6416460;22;20019;-78
2024/04/11 14:31:04;;;;;;;;;;;;;;;;;;;;;
2024/04/11 14:37:05;;;;;;;;;;;;;;;;;;;;;
2024/04/11 14:39:27;;;;;;;;;;;;;;;;;;;;;
2024/04/11 14:42:14;;;;;;;;;;;;;;;;;;;;;
2024/04/11 14:45:15;;;;;;;0.00;0.00;;;;;;;23.38;54.27;101711.69;6422437;22;20009;-78
2024/04/11 14:48:24;;;;;;;0.00;0.00;;;;;;;22.88;55.98;101686.81;6421802;22;20785;-77
2024/04/11 14:51:26;;;;;;;;;;;;;;;;;;;;;
2024/04/11 14:53:46;;;;;;;0.00;0.00;;;;;;;21.79;60.36;101652.34;6419864;22;20010;-78
2024/04/11 14:56:18;;;;;;;0.00;0.00;;;;;;;22.31;59.89;101677.03;6418473;22;20509;-78
2024/04/11 14:59:30;;;;;;;0.00;0.00;;;;;;;22.06;59.88;101678.47;6342654;22;20013;-77
2024/04/11 15:02:41;;;;;;;0.00;0.00;;;;;;;21.01;62.88;101694.78;6422047;22;20009;-79
2024/04/11 15:05:17;;;;;;;0.00;0.00;;;;;;;19.97;66.78;101683.63;6364464;22;20006;-77
2024/04/11 15:07:54;;;;;;;0.00;0.00;;;;;;;19.47;70.51;101672.88;6420999;22;19998;-78
2024/04/11 15:10:26;;;;;;;0.00;0.00;;;;;;;19.74;71.55;101713.06;6423291;22;20005;-78
2024/04/11 15:13:12;;;;;;;0.00;0.00;;;;;;;20.99;68.71;101719.28;6419871;22;19998;-77
2024/04/11 15:19:22;;;;;;;0.00;0.00;;;;;;;22.01;62.84;101678.59;6332848;22;20003;-77
2024/04/11 15:21:52;;;;;;;0.00;0.00;;;;;;;22.53;60.76;101693.00;6418112;22;19998;-78
2024/04/11 15:24:26;;;;;;;0.00;0.00;;;;;;;22.38;59.95;101713.69;6380380;22;20015;-79
2024/04/11 15:28:07;;;;;;;;;;;;;;;;;;;;;
2024/04/11 15:31:15;;;;;;;0.00;0.00;;;;;;;20.92;65.04;101729.97;6224156;23;19993;-79
2024/04/11 15:34:10;;;;;;;0.00;0.00;;;;;;;20.24;67.54;101723.81;6182415;23;20075;-77
2024/04/11 15:36:53;;;;;;;0.00;0.00;;;;;;;19.61;69.39;101686.88;6278216;22;20408;-78
2024/04/11 15:39:28;;;;;;;0.00;0.00;;;;;;;19.50;70.96;101701.97;6244554;22;20000;-79
2024/04/11 15:42:02;;;;;;;0.00;0.00;;;;;;;19.29;71.26;101696.69;6362713;22;20006;-78
2024/04/11 15:49:17;;;;;;;;;;;;;;;;;;;;;
2024/04/11 15:51:45;;;;;;;0.00;0.00;;;;;;;18.35;76.43;101681.13;6348363;22;19995;-78
2024/04/11 16:15:00;;;;;;;0.00;0.00;;;;;;;17.15;85.44;101668.13;6175738;23;20009;-78
2024/04/11 16:17:25;;;;;;;0.00;0.00;;;;;;;17.07;86.07;101671.50;6096912;23;20002;-79
2024/04/11 16:54:40;;;;;;;0.00;0.00;;;;;;;16.73;87.13;101685.84;6517452;22;20791;-80
2024/04/11 17:04:10;;;;;;;0.00;0.00;;;;;;;16.50;87.62;101654.09;6521406;22;20012;-78
2024/04/11 17:06:43;;;;;;;0.00;0.00;;;;;;;16.55;88.77;101701.06;6520730;22;19998;-84
2024/04/11 17:13:20;;;;;;;0.00;0.00;;;;;;;16.01;92.27;101672.00;6518915;22;20009;-77
2024/04/11 17:16:43;;;;;;;0.00;0.00;;;;;;;15.84;93.10;101655.66;6503436;22;19997;-79
2024/04/11 17:25:48;;;;;;;0.00;0.00;;;;;;;16.20;93.94;101713.69;6341400;22;20146;-79
2024/04/11 17:28:49;;;;;;;0.00;0.00;;;;;;;15.65;94.29;101656.16;6320997;22;20474;-80
2024/04/11 17:31:46;;;;;;;;;;;;;;;;;;;;;
2024/04/11 17:35:18;;;;;;;0.00;0.00;;;;;;;15.15;97.97;101661.13;6334624;22;20003;-80
2024/04/11 17:38:24;;;;;;;0.00;0.00;;;;;;;14.88;100.00;101674.19;6500003;22;20420;-79
2024/04/11 17:45:28;;;;;;;;;;;;;;;;;;;;;
2024/04/11 17:50:36;;;;;;;0.00;0.00;;;;;;;14.48;100.00;101690.06;6465972;22;20461;-80
2024/04/11 17:53:17;;;;;;;;;;;;;;;;;;;;;
2024/04/11 17:56:09;;;;;;;0.00;0.00;;;;;;;14.63;100.00;101719.69;6517495;22;20012;-78
2024/04/11 17:59:31;;;;;;;;;;;;;;;;;;;;;
2024/04/11 18:07:16;;;;;;;;;;;;;;;;;;;;;
2024/04/11 18:10:16;;;;;;;0.00;0.00;;;;;;;14.49;100.00;101724.78;6331684;22;20114;-80
2024/04/11 18:49:17;;;;;;;0.00;0.00;;;;;;;13.41;100.00;101740.00;6573383;21;20008;-76
2024/04/11 18:52:23;;;;;;;;;;;;;;;;;;;;;
2024/04/11 18:55:55;;;;;;;0.00;0.00;;;;;;;12.89;100.00;101680.69;6468580;22;19998;-76
2024/04/11 19:01:57;;;;;;;0.00;0.00;;;;;;;12.97;100.00;101705.00;6370285;22;19998;-78
2024/04/11 19:04:42;;;;;;;0.10;0.10;;;;;;;12.75;100.00;101694.75;6375138;22;20013;-78
2024/04/11 19:07:14;;;;;;;0.00;0.00;;;;;;;13.07;100.00;101740.84;6428141;22;20471;-77
2024/04/11 19:20:40;;;;;;;;;;;;;;;;;;;;;
2024/04/11 22:02:51;;;;;;;;;;;;;;;;;;;;;
2024/04/11 22:05:23;;;;;;;0.00;0.00;;;;;;;11.20;100.00;101787.81;6344211;21;20292;-78
2024/04/11 22:08:07;;;;;;;0.00;0.00;;;;;;;11.22;100.00;101797.47;6571933;21;20079;-77
2024/04/11 22:10:58;;;;;;;;;;;;;;;;;;;;;
2024/04/11 22:14:18;;;;;;;;;;;;;;;;;;;;;
2024/04/11 22:17:39;;;;;;;0.00;0.00;;;;;;;11.33;100.00;101799.41;6542886;21;19996;-78
2024/04/11 23:03:09;;;;;;;0.00;0.00;;;;;;;11.00;100.00;101770.66;5996589;23;20152;-81
2024/04/11 23:59:13;;;;;;;0.00;0.00;;;;;;;9.86;100.00;101748.72;6479703;22;20012;-77
